Time,TemperatureF,DewpointF,PressureIn,WindDirection,WindDirectionDegrees,WindSpeedMPH,WindSpeedGustMPH,Humidity,HourlyPrecipIn,Conditions,Clouds,dailyrainin,SoftwareType,DateUTC
2013-04-25 00:01:00,50.9,48.4,29.83,SSE,158,0.0,0.0,91,0.00,CLR,,0.00,WeatherDisplay:10.37,2013-04-25 04:01:00,
2013-04-25 00:02:00,50.9,48.4,29.83,SSE,158,0.0,0.0,91,0.00,CLR,,0.00,WeatherDisplay:10.37,2013-04-25 04:02:00,
2013-04-25 00:03:00,50.9,48.4,29.83,SSE,158,0.0,0.0,91,0.00,FEW,,0.00,WeatherDisplay:10.37,2013-04-25 04:03:00,
2013-04-25 00:04:00,51.0,48.5,29.83,SSE,158,0.0,0.0,91,0.00,FEW,,0.00,WeatherDisplay:10.37,2013-04-25 04:04:00,
2013-04-25 00:09:00,51.1,48.6,29.83,SSE,158,0.0,0.0,91,0.00,FEW,,0.00,WeatherDisplay:10.37,2013-04-25 04:09:00,
2013-04-25 00:14:00,50.9,48.4,29.83,SSE,158,0.0,0.0,91,0.00,FEW,,0.00,WeatherDisplay:10.37,2013-04-25 04:14:00,
2013-04-25 00:19:00,51.1,48.6,29.83,SSE,158,0.0,0.0,91,0.00,FEW,,0.00,WeatherDisplay:10.37,2013-04-25 04:19:00,
2013-04-25 00:24:00,51.2,49.0,29.83,SSE,158,0.0,0.0,92,0.00,FEW,,0.00,WeatherDisplay:10.37,2013-04-25 04:24:00,
2013-04-25 00:29:00,51.1,48.6,29.83,SSE,158,0.0,0.0,91,0.00,FEW,,0.00,WeatherDisplay:10.37,2013-04-25 04:29:00,
2013-04-25 00:34:00,51.2,48.7,29.83,ENE,76,2.3,2.3,91,0.00,FEW,,0.00,WeatherDisplay:10.37,2013-04-25 04:34:00,
2013-04-25 00:39:00,51.3,48.8,29.83,ENE,66,2.3,2.3,91,0.00,FEW,,0.00,WeatherDisplay:10.37,2013-04-25 04:39:00,
2013-04-25 00:44:00,51.3,48.8,29.84,ENE,59,0.0,0.0,91,0.00,FEW,,0.00,WeatherDisplay:10.37,2013-04-25 04:44:00,
2013-04-25 00:49:00,51.4,48.9,29.84,WSW,251,6.9,6.9,91,0.00,FEW,,0.00,WeatherDisplay:10.37,2013-04-25 04:49:00,
2013-04-25 00:54:00,51.5,49.0,29.83,SSE,167,5.8,5.8,91,0.00,FEW,,0.00,WeatherDisplay:10.37,2013-04-25 04:54:00,
2013-04-25 00:59:00,51.7,49.2,29.84,NNE,18,1.8,1.8,91,0.00,FEW,,0.00,WeatherDisplay:10.37,2013-04-25 04:59:00,
2013-04-25 01:04:00,52.3,50.1,29.84,East,80,6.9,6.9,92,0.00,OVC,,0.00,WeatherDisplay:10.37,2013-04-25 05:04:00,
2013-04-25 01:09:00,52.8,50.6,29.85,SW,236,11.5,11.5,92,0.00,OVC,,0.00,WeatherDisplay:10.37,2013-04-25 05:09:00,
2013-04-25 01:14:00,53.4,50.9,29.85,WNW,291,9.2,9.2,91,0.00,OVC,,0.00,WeatherDisplay:10.37,2013-04-25 05:14:00,
2013-04-25 01:19:00,53.7,50.9,29.86,WNW,302,6.9,7.0,90,0.00,OVC,,0.00,WeatherDisplay:10.37,2013-04-25 05:19:00,
2013-04-25 01:24:00,53.9,51.1,29.85,West,277,6.9,6.9,90,0.00,OVC,,0.00,WeatherDisplay:10.37,2013-04-25 05:24:00,
2013-04-25 01:29:00,54.2,51.4,29.85,WNW,291,9.2,9.2,90,0.00,OVC,,0.00,WeatherDisplay:10.37,2013-04-25 05:29:00,
2013-04-25 01:34:00,54.1,51.6,29.85,West,260,12.7,12.7,91,0.00,OVC,,0.00,WeatherDisplay:10.37,2013-04-25 05:34:00,
2013-04-25 01:39:00,54.0,51.5,29.85,WSW,256,17.3,17.3,91,0.00,OVC,,0.00,WeatherDisplay:10.37,2013-04-25 05:39:00,
2013-04-25 01:44:00,54.2,51.4,29.85,WNW,287,9.2,9.2,90,0.00,OVC,,0.00,WeatherDisplay:10.37,2013-04-25 05:44:00,
2013-04-25 01:49:00,54.4,51.6,29.85,West,275,6.9,6.9,90,0.00,OVC,,0.00,WeatherDisplay:10.37,2013-04-25 05:49:00,
2013-04-25 01:54:00,54.4,51.6,29.85,West,263,11.5,11.5,90,0.00,OVC,,0.00,WeatherDisplay:10.37,2013-04-25 05:54:00,
2013-04-25 01:59:00,54.2,51.7,29.85,West,281,9.2,9.2,91,0.00,OVC,,0.00,WeatherDisplay:10.37,2013-04-25 05:59:00,
2013-04-25 02:04:00,54.2,51.7,29.85,NNW,336,9.2,9.2,91,0.00,-RA,,0.00,WeatherDisplay:10.37,2013-04-25 06:04:00,
2013-04-25 02:09:00,54.2,51.7,29.85,WNW,288,4.6,4.6,91,0.00,-RA,,0.00,WeatherDisplay:10.37,2013-04-25 06:09:00,
2013-04-25 02:14:00,54.3,51.8,29.85,WSW,246,9.8,9.8,91,0.00,-RA,,0.00,WeatherDisplay:10.37,2013-04-25 06:14:00,
2013-04-25 02:19:00,54.4,51.9,29.86,WSW,254,8.1,8.1,91,0.00,-RA,,0.00,WeatherDisplay:10.37,2013-04-25 06:19:00,
2013-04-25 02:24:00,54.3,51.8,29.86,NW,315,10.4,10.4,91,0.00,-RA,,0.00,WeatherDisplay:10.37,2013-04-25 06:24:00,
2013-04-25 02:29:00,54.4,51.6,29.85,WSW,237,3.5,3.5,90,0.00,-RA,,0.00,WeatherDisplay:10.37,2013-04-25 06:29:00,
2013-04-25 02:34:00,54.5,51.7,29.86,WSW,251,3.5,3.5,90,0.00,-RA,,0.00,WeatherDisplay:10.37,2013-04-25 06:34:00,
2013-04-25 02:39:00,54.2,51.4,29.86,NNW,336,5.8,5.8,90,0.00,-RA,,0.00,WeatherDisplay:10.37,2013-04-25 06:39:00,
2013-04-25 02:44:00,54.1,51.3,29.87,North,4,3.5,3.6,90,0.00,-RA,,0.00,WeatherDisplay:10.37,2013-04-25 06:44:00,
2013-04-25 02:49:00,53.9,51.1,29.87,East,82,8.1,8.1,90,0.00,-RA,,0.00,WeatherDisplay:10.37,2013-04-25 06:49:00,
2013-04-25 02:54:00,53.6,51.1,29.87,NNW,346,3.7,3.7,91,0.00,-RA,,0.00,WeatherDisplay:10.37,2013-04-25 06:54:00,
2013-04-25 02:59:00,53.5,51.0,29.87,NW,318,12.7,12.7,91,0.00,-RA,,0.00,WeatherDisplay:10.37,2013-04-25 06:59:00,
2013-04-25 03:04:00,53.4,48.7,29.88,NNW,330,13.8,13.8,84,0.00,OVC,,0.00,WeatherDisplay:10.37,2013-04-25 07:04:00,
2013-04-25 03:09:00,53.9,44.4,29.87,WNW,302,20.7,20.7,70,0.00,OVC,,0.00,WeatherDisplay:10.37,2013-04-25 07:09:00,
2013-04-25 03:14:00,54.3,44.0,29.88,NW,308,19.6,19.6,68,0.00,OVC,,0.00,WeatherDisplay:10.37,2013-04-25 07:14:00,
2013-04-25 03:19:00,54.1,42.6,29.88,North,349,12.7,12.7,65,0.00,OVC,,0.00,WeatherDisplay:10.37,2013-04-25 07:19:00,
2013-04-25 03:24:00,54.0,42.5,29.88,NNW,332,9.2,9.2,65,0.00,OVC,,0.00,WeatherDisplay:10.37,2013-04-25 07:24:00,
2013-04-25 03:29:00,54.0,42.5,29.89,NW,304,6.9,6.9,65,0.00,OVC,,0.00,WeatherDisplay:10.37,2013-04-25 07:29:00,
2013-04-25 03:34:00,53.8,41.5,29.89,WNW,291,9.2,9.9,63,0.00,OVC,,0.00,WeatherDisplay:10.37,2013-04-25 07:34:00,
2013-04-25 03:39:00,53.7,42.2,29.90,WNW,299,11.5,11.5,65,0.00,OVC,,0.00,WeatherDisplay:10.37,2013-04-25 07:39:00,
2013-04-25 03:44:00,53.3,41.9,29.90,NNW,346,9.2,9.2,65,0.00,OVC,,0.00,WeatherDisplay:10.37,2013-04-25 07:44:00,
2013-04-25 03:49:00,53.0,41.6,29.91,WNW,287,8.1,8.1,65,0.00,OVC,,0.00,WeatherDisplay:10.37,2013-04-25 07:49:00,
2013-04-25 03:54:00,52.6,41.2,29.91,West,261,15.0,15.0,65,0.00,OVC,,0.00,WeatherDisplay:10.37,2013-04-25 07:54:00,
2013-04-25 03:59:00,52.3,41.3,29.92,NE,52,6.9,6.9,66,0.00,OVC,,0.00,WeatherDisplay:10.37,2013-04-25 07:59:00,
2013-04-25 04:04:00,52.2,41.2,29.93,WNW,285,6.9,6.9,66,0.00,OVC,,0.00,WeatherDisplay:10.37,2013-04-25 08:04:00,
2013-04-25 04:09:00,51.8,41.2,29.93,NW,323,12.7,12.7,67,0.00,OVC,,0.00,WeatherDisplay:10.37,2013-04-25 08:09:00,
2013-04-25 04:14:00,51.9,41.7,29.94,WNW,285,9.2,9.2,68,0.00,OVC,,0.00,WeatherDisplay:10.37,2013-04-25 08:14:00,
2013-04-25 04:19:00,51.8,41.6,29.94,WNW,302,11.5,11.5,68,0.00,OVC,,0.00,WeatherDisplay:10.37,2013-04-25 08:19:00,
2013-04-25 04:24:00,51.7,41.5,29.95,NNE,18,9.2,9.2,68,0.00,OVC,,0.00,WeatherDisplay:10.37,2013-04-25 08:24:00,
2013-04-25 04:29:00,51.4,40.8,29.95,North,6,13.8,13.8,67,0.00,OVC,,0.00,WeatherDisplay:10.37,2013-04-25 08:29:00,
2013-04-25 04:34:00,51.1,40.2,29.96,North,6,12.7,12.7,66,0.00,OVC,,0.00,WeatherDisplay:10.37,2013-04-25 08:34:00,
2013-04-25 04:39:00,50.8,40.3,29.97,NW,306,9.2,9.2,67,0.00,OVC,,0.00,WeatherDisplay:10.37,2013-04-25 08:39:00,
2013-04-25 04:44:00,50.6,38.9,29.97,NW,311,8.1,8.1,64,0.00,OVC,,0.00,WeatherDisplay:10.37,2013-04-25 08:44:00,
2013-04-25 04:49:00,50.5,38.8,29.97,NNW,333,11.5,11.5,64,0.00,OVC,,0.00,WeatherDisplay:10.37,2013-04-25 08:49:00,
2013-04-25 04:54:00,50.3,38.2,29.98,ENE,66,9.2,9.2,63,0.00,OVC,,0.00,WeatherDisplay:10.37,2013-04-25 08:54:00,
2013-04-25 04:59:00,50.0,38.3,29.98,NE,51,6.9,6.9,64,0.00,OVC,,0.00,WeatherDisplay:10.37,2013-04-25 08:59:00,
2013-04-25 05:04:00,49.9,38.2,29.98,North,360,3.5,3.5,64,0.00,OVC,,0.00,WeatherDisplay:10.37,2013-04-25 09:04:00,
2013-04-25 05:09:00,49.5,36.2,29.99,NE,51,15.0,15.0,60,0.00,OVC,,0.00,WeatherDisplay:10.37,2013-04-25 09:09:00,
2013-04-25 05:14:00,49.1,35.8,29.99,North,349,15.0,15.0,60,0.00,OVC,,0.00,WeatherDisplay:10.37,2013-04-25 09:14:00,
2013-04-25 05:19:00,48.9,36.1,30.00,West,265,5.8,5.8,61,0.00,OVC,,0.00,WeatherDisplay:10.37,2013-04-25 09:19:00,
2013-04-25 05:24:00,48.8,36.0,30.01,North,11,9.2,9.2,61,0.00,OVC,,0.00,WeatherDisplay:10.37,2013-04-25 09:24:00,
2013-04-25 05:29:00,48.4,35.6,30.01,North,8,8.1,8.1,61,0.00,OVC,,0.00,WeatherDisplay:10.37,2013-04-25 09:29:00,
2013-04-25 05:34:00,48.4,36.4,30.01,NNW,347,2.3,2.3,63,0.00,OVC,,0.00,WeatherDisplay:10.37,2013-04-25 09:34:00,
2013-04-25 05:39:00,48.0,35.6,30.02,North,359,10.4,10.4,62,0.00,OVC,,0.00,WeatherDisplay:10.37,2013-04-25 09:39:00,
2013-04-25 05:44:00,47.9,35.9,30.02,West,260,5.8,5.8,63,0.00,OVC,,0.00,WeatherDisplay:10.37,2013-04-25 09:44:00,
2013-04-25 05:49:00,47.8,35.8,30.03,NW,323,10.4,10.4,63,0.00,OVC,,0.00,WeatherDisplay:10.37,2013-04-25 09:49:00,
2013-04-25 05:54:00,47.7,35.8,30.02,NNE,25,9.2,9.2,63,0.00,OVC,,0.00,WeatherDisplay:10.37,2013-04-25 09:54:00,
2013-04-25 05:59:00,47.6,36.1,30.03,North,6,8.1,8.1,64,0.00,OVC,,0.00,WeatherDisplay:10.37,2013-04-25 09:59:00,
2013-04-25 06:04:00,47.6,36.4,30.03,WSW,251,8.1,8.1,65,0.00,BKN,,0.00,WeatherDisplay:10.37,2013-04-25 10:04:00,
2013-04-25 06:09:00,47.3,35.8,30.03,North,354,6.9,6.9,64,0.00,BKN,,0.00,WeatherDisplay:10.37,2013-04-25 10:09:00,
2013-04-25 06:14:00,47.1,35.2,30.04,SW,227,5.8,5.8,63,0.00,BKN,,0.00,WeatherDisplay:10.37,2013-04-25 10:14:00,
2013-04-25 06:19:00,46.9,35.4,30.05,NNE,13,8.1,8.1,64,0.00,BKN,,0.00,WeatherDisplay:10.37,2013-04-25 10:19:00,
2013-04-25 06:24:00,46.9,35.4,30.05,North,6,9.2,9.2,64,0.00,BKN,,0.00,WeatherDisplay:10.37,2013-04-25 10:24:00,
2013-04-25 06:29:00,46.6,35.1,30.06,NNE,18,2.3,2.3,64,0.00,BKN,,0.00,WeatherDisplay:10.37,2013-04-25 10:29:00,
2013-04-25 06:34:00,46.6,34.7,30.06,NNE,30,6.9,6.9,63,0.00,BKN,,0.00,WeatherDisplay:10.37,2013-04-25 10:34:00,
2013-04-25 06:39:00,46.4,34.9,30.07,WNW,289,5.8,5.8,64,0.00,BKN,,0.00,WeatherDisplay:10.37,2013-04-25 10:39:00,
2013-04-25 06:44:00,46.1,33.8,30.07,North,352,13.8,13.8,62,0.00,BKN,,0.00,WeatherDisplay:10.37,2013-04-25 10:44:00,
2013-04-25 06:49:00,45.9,33.6,30.07,North,8,13.8,13.8,62,0.00,BKN,,0.00,WeatherDisplay:10.37,2013-04-25 10:49:00,
2013-04-25 06:54:00,45.7,33.5,30.07,North,1,6.9,6.9,62,0.00,BKN,,0.00,WeatherDisplay:10.37,2013-04-25 10:54:00,
2013-04-25 06:59:00,45.6,34.2,30.08,NNW,332,5.8,5.8,64,0.00,BKN,,0.00,WeatherDisplay:10.37,2013-04-25 10:59:00,
2013-04-25 07:04:00,45.8,33.5,30.08,NNE,27,12.7,12.7,62,0.00,CLR,,0.00,WeatherDisplay:10.37,2013-04-25 11:04:00,
2013-04-25 07:09:00,46.0,33.7,30.08,NNE,16,3.5,3.5,62,0.00,CLR,,0.00,WeatherDisplay:10.37,2013-04-25 11:09:00,
2013-04-25 07:14:00,46.2,34.3,30.08,North,349,5.8,5.8,63,0.00,CLR,,0.00,WeatherDisplay:10.37,2013-04-25 11:14:00,
2013-04-25 07:19:00,46.5,34.2,30.08,SW,220,0.0,0.0,62,0.00,CLR,,0.00,WeatherDisplay:10.37,2013-04-25 11:19:00,
2013-04-25 07:24:00,46.7,34.8,30.07,NNW,330,8.0,8.0,63,0.00,CLR,,0.00,WeatherDisplay:10.37,2013-04-25 11:24:00,
2013-04-25 07:29:00,46.7,34.4,30.07,NNE,14,5.8,5.8,62,0.00,CLR,,0.00,WeatherDisplay:10.37,2013-04-25 11:29:00,
2013-04-25 07:34:00,46.9,34.6,30.08,North,356,5.8,5.8,62,0.00,CLR,,0.00,WeatherDisplay:10.37,2013-04-25 11:34:00,
2013-04-25 07:39:00,47.1,34.8,30.08,WNW,292,11.5,11.5,62,0.00,CLR,,0.00,WeatherDisplay:10.37,2013-04-25 11:39:00,
2013-04-25 07:44:00,47.2,34.5,30.08,NNW,333,9.2,9.2,61,0.00,CLR,,0.00,WeatherDisplay:10.37,2013-04-25 11:44:00,
2013-04-25 07:50:00,47.4,34.7,30.08,NNW,339,0.0,0.7,61,0.00,CLR,,0.00,WeatherDisplay:10.37,2013-04-25 11:50:00,
2013-04-25 07:55:00,47.5,34.3,30.08,NW,319,6.9,6.9,60,0.00,CLR,,0.00,WeatherDisplay:10.37,2013-04-25 11:55:00,
2013-04-25 08:00:00,47.3,34.1,30.08,NW,309,10.4,10.4,60,0.00,CLR,,0.00,WeatherDisplay:10.37,2013-04-25 12:00:00,
2013-04-25 08:05:00,47.4,34.2,30.08,NNW,340,12.7,12.7,60,0.00,CLR,,0.00,WeatherDisplay:10.37,2013-04-25 12:05:00,
2013-04-25 08:10:00,47.2,33.6,30.08,NW,316,10.4,10.4,59,0.00,CLR,,0.00,WeatherDisplay:10.37,2013-04-25 12:10:00,
2013-04-25 08:15:00,47.1,34.0,30.08,NW,325,10.4,10.4,60,0.00,CLR,,0.00,WeatherDisplay:10.37,2013-04-25 12:15:00,
2013-04-25 08:21:00,47.4,34.2,30.08,NE,54,6.9,6.9,60,0.00,CLR,,0.00,WeatherDisplay:10.37,2013-04-25 12:21:00,
2013-04-25 08:26:00,47.7,34.5,30.09,North,360,10.4,10.4,60,0.00,CLR,,0.00,WeatherDisplay:10.37,2013-04-25 12:26:00,
2013-04-25 08:31:00,47.9,35.1,30.09,NNE,21,8.1,8.1,61,0.00,CLR,,0.00,WeatherDisplay:10.37,2013-04-25 12:31:00,
2013-04-25 08:36:00,48.1,34.5,30.09,NNW,337,9.2,9.2,59,0.00,CLR,,0.00,WeatherDisplay:10.37,2013-04-25 12:36:00,
2013-04-25 08:41:00,48.3,34.7,30.09,North,354,10.4,10.4,59,0.00,CLR,,0.00,WeatherDisplay:10.37,2013-04-25 12:41:00,
2013-04-25 08:46:00,48.5,34.0,30.09,NNW,332,12.7,12.7,57,0.00,CLR,,0.00,WeatherDisplay:10.37,2013-04-25 12:46:00,
2013-04-25 08:51:00,48.7,34.6,30.09,NNW,346,11.5,11.5,58,0.00,CLR,,0.00,WeatherDisplay:10.37,2013-04-25 12:51:00,
2013-04-25 08:56:00,48.5,33.5,30.09,North,3,8.1,8.1,56,0.00,CLR,,0.00,WeatherDisplay:10.37,2013-04-25 12:56:00,
2013-04-25 09:01:00,48.5,33.5,30.09,NNW,339,11.5,11.5,56,0.00,CLR,,0.00,WeatherDisplay:10.37,2013-04-25 13:01:00,
2013-04-25 09:07:00,49.4,34.4,30.10,NNW,336,7.3,7.3,56,0.00,CLR,,0.00,WeatherDisplay:10.37,2013-04-25 13:07:00,
2013-04-25 09:12:00,49.7,34.7,30.09,NW,318,5.8,5.8,56,0.00,CLR,,0.00,WeatherDisplay:10.37,2013-04-25 13:12:00,
2013-04-25 09:17:00,50.1,33.7,30.10,NW,325,10.4,10.4,53,0.00,CLR,,0.00,WeatherDisplay:10.37,2013-04-25 13:17:00,
2013-04-25 09:22:00,50.3,33.8,30.10,West,265,9.2,9.2,53,0.00,CLR,,0.00,WeatherDisplay:10.37,2013-04-25 13:22:00,
2013-04-25 09:27:00,50.4,33.9,30.10,NW,318,9.2,9.2,53,0.00,CLR,,0.00,WeatherDisplay:10.37,2013-04-25 13:27:00,
2013-04-25 09:32:00,50.5,33.1,30.10,NNW,339,8.1,8.1,51,0.00,CLR,,0.00,WeatherDisplay:10.37,2013-04-25 13:32:00,
2013-04-25 09:37:00,50.7,33.3,30.10,WNW,298,10.4,10.4,51,0.00,CLR,,0.00,WeatherDisplay:10.37,2013-04-25 13:37:00,
2013-04-25 09:42:00,51.0,34.5,30.11,WNW,299,6.9,6.9,53,0.00,CLR,,0.00,WeatherDisplay:10.37,2013-04-25 13:42:00,
2013-04-25 09:47:00,51.4,33.4,30.11,WNW,292,11.5,11.5,50,0.00,CLR,,0.00,WeatherDisplay:10.37,2013-04-25 13:47:00,
2013-04-25 09:52:00,51.3,33.3,30.11,North,4,8.1,8.1,50,0.00,CLR,,0.00,WeatherDisplay:10.37,2013-04-25 13:52:00,
2013-04-25 09:57:00,51.5,33.5,30.11,WNW,301,8.1,8.1,50,0.00,CLR,,0.00,WeatherDisplay:10.37,2013-04-25 13:57:00,
2013-04-25 10:02:00,51.3,33.8,30.11,North,357,5.8,5.8,51,0.00,CLR,,0.00,WeatherDisplay:10.37,2013-04-25 14:02:00,
2013-04-25 10:07:00,51.2,33.7,30.11,NW,304,11.6,11.6,51,0.00,CLR,,0.00,WeatherDisplay:10.37,2013-04-25 14:07:00,
2013-04-25 10:12:00,51.5,34.5,30.12,NNW,332,9.6,9.6,52,0.00,CLR,,0.00,WeatherDisplay:10.37,2013-04-25 14:12:00,
2013-04-25 10:17:00,52.1,33.5,30.12,WNW,296,12.7,12.7,49,0.00,CLR,,0.00,WeatherDisplay:10.37,2013-04-25 14:17:00,
2013-04-25 10:22:00,52.6,35.0,30.12,WNW,301,6.9,6.9,51,0.00,CLR,,0.00,WeatherDisplay:10.37,2013-04-25 14:22:00,
2013-04-25 10:27:00,53.2,33.5,30.12,NNW,329,11.5,11.5,47,0.00,CLR,,0.00,WeatherDisplay:10.37,2013-04-25 14:27:00,
2013-04-25 10:32:00,52.9,34.8,30.12,WSW,258,8.1,8.1,50,0.00,CLR,,0.00,WeatherDisplay:10.37,2013-04-25 14:32:00,
2013-04-25 10:37:00,52.8,33.7,30.12,West,263,11.5,11.5,48,0.00,CLR,,0.00,WeatherDisplay:10.37,2013-04-25 14:37:00,
2013-04-25 10:42:00,53.2,34.0,30.12,NNW,329,12.7,12.7,48,0.00,CLR,,0.00,WeatherDisplay:10.37,2013-04-25 14:42:00,
2013-04-25 10:47:00,53.6,34.4,30.12,ENE,58,3.5,3.5,48,0.00,CLR,,0.00,WeatherDisplay:10.37,2013-04-25 14:47:00,
2013-04-25 10:52:00,54.8,34.4,30.12,NW,309,5.8,5.8,46,0.00,CLR,,0.00,WeatherDisplay:10.37,2013-04-25 14:52:00,
2013-04-25 10:57:00,54.5,33.6,30.12,NW,325,5.8,5.8,45,0.00,CLR,,0.00,WeatherDisplay:10.37,2013-04-25 14:57:00,
2013-04-25 11:02:00,54.0,33.7,30.12,NNW,344,10.4,10.4,46,0.00,CLR,,0.00,WeatherDisplay:10.37,2013-04-25 15:02:00,
2013-04-25 11:07:00,54.1,33.8,30.12,NE,55,8.1,8.1,46,0.00,CLR,,0.00,WeatherDisplay:10.37,2013-04-25 15:07:00,
2013-04-25 11:12:00,54.7,32.7,30.12,WNW,299,8.0,8.0,43,0.00,CLR,,0.00,WeatherDisplay:10.37,2013-04-25 15:12:00,
2013-04-25 11:17:00,54.8,32.7,30.12,West,264,12.7,12.7,43,0.00,CLR,,0.00,WeatherDisplay:10.37,2013-04-25 15:17:00,
2013-04-25 11:22:00,54.6,32.0,30.13,NNW,328,10.4,10.4,42,0.00,CLR,,0.00,WeatherDisplay:10.37,2013-04-25 15:22:00,
2013-04-25 11:27:00,54.4,31.8,30.12,WNW,301,9.2,9.2,42,0.00,CLR,,0.00,WeatherDisplay:10.37,2013-04-25 15:27:00,
2013-04-25 11:32:00,54.8,32.2,30.13,NE,37,6.9,6.9,42,0.00,CLR,,0.00,WeatherDisplay:10.37,2013-04-25 15:32:00,
2013-04-25 11:37:00,54.8,32.2,30.13,NNW,346,12.7,12.7,42,0.00,CLR,,0.00,WeatherDisplay:10.37,2013-04-25 15:37:00,
2013-04-25 11:42:00,54.9,34.0,30.13,NNE,30,4.6,4.6,45,0.00,CLR,,0.00,WeatherDisplay:10.37,2013-04-25 15:42:00,
2013-04-25 11:47:00,55.5,32.8,30.13,NNE,31,6.9,6.9,42,0.00,CLR,,0.00,WeatherDisplay:10.37,2013-04-25 15:47:00,
2013-04-25 11:52:00,55.7,31.8,30.13,North,7,8.1,8.1,40,0.00,CLR,,0.00,WeatherDisplay:10.37,2013-04-25 15:52:00,
2013-04-25 11:57:00,55.9,31.3,30.13,ENE,66,6.9,6.9,39,0.00,CLR,,0.00,WeatherDisplay:10.37,2013-04-25 15:57:00,
2013-04-25 12:02:00,55.9,32.6,30.13,East,93,3.5,3.5,41,0.00,CLR,,0.00,WeatherDisplay:10.37,2013-04-25 16:02:00,
2013-04-25 12:07:00,55.7,31.8,30.13,NNW,342,6.9,6.9,40,0.00,CLR,,0.00,WeatherDisplay:10.37,2013-04-25 16:07:00,
2013-04-25 12:12:00,55.8,33.1,30.13,WSW,240,6.9,6.9,42,0.00,CLR,,0.00,WeatherDisplay:10.37,2013-04-25 16:12:00,
2013-04-25 12:17:00,56.1,31.5,30.13,SSE,150,6.9,6.9,39,0.00,CLR,,0.00,WeatherDisplay:10.37,2013-04-25 16:17:00,
2013-04-25 12:23:00,56.6,35.0,30.13,West,275,5.8,5.8,44,0.00,CLR,,0.00,WeatherDisplay:10.37,2013-04-25 16:23:00,
2013-04-25 12:28:00,56.6,34.4,30.13,ENE,73,9.2,9.2,43,0.00,CLR,,0.00,WeatherDisplay:10.37,2013-04-25 16:28:00,
2013-04-25 12:33:00,56.5,33.1,30.14,NNW,347,5.8,5.8,41,0.00,CLR,,0.00,WeatherDisplay:10.37,2013-04-25 16:33:00,
2013-04-25 12:38:00,56.4,32.4,30.13,North,360,3.5,0.0,40,0.00,CLR,,0.00,WeatherDisplay:10.37,2013-04-25 16:38:00,
2013-04-25 12:43:00,56.8,32.1,30.13,North,350,4.6,4.6,39,0.00,CLR,,0.00,WeatherDisplay:10.37,2013-04-25 16:43:00,
2013-04-25 12:48:00,57.0,31.7,30.13,North,360,10.4,10.4,38,0.00,CLR,,0.00,WeatherDisplay:10.37,2013-04-25 16:48:00,
2013-04-25 12:53:00,57.4,33.9,30.14,NNE,20,3.5,3.5,41,0.00,CLR,,0.00,WeatherDisplay:10.37,2013-04-25 16:53:00,
2013-04-25 12:58:00,56.9,28.8,30.13,NNE,24,7.6,7.6,34,0.00,CLR,,0.00,WeatherDisplay:10.37,2013-04-25 16:58:00,
2013-04-25 13:03:00,56.7,29.4,30.13,North,8,9.2,9.2,35,0.00,CLR,,0.00,WeatherDisplay:10.37,2013-04-25 17:03:00,
2013-04-25 13:08:00,56.4,29.8,30.13,North,349,10.4,10.4,36,0.00,CLR,,0.00,WeatherDisplay:10.37,2013-04-25 17:08:00,
2013-04-25 13:13:00,56.5,29.9,30.13,NW,315,10.9,10.9,36,0.00,CLR,,0.00,WeatherDisplay:10.37,2013-04-25 17:13:00,
2013-04-25 13:18:00,56.6,30.0,30.13,North,350,4.6,4.6,36,0.00,CLR,,0.00,WeatherDisplay:10.37,2013-04-25 17:18:00,
2013-04-25 13:23:00,56.9,31.6,30.13,East,80,6.9,6.9,38,0.00,CLR,,0.00,WeatherDisplay:10.37,2013-04-25 17:23:00,
2013-04-25 13:28:00,56.9,27.3,30.13,NNW,333,11.5,11.5,32,0.00,CLR,,0.00,WeatherDisplay:10.37,2013-04-25 17:28:00,
2013-04-25 13:33:00,57.0,28.9,30.13,North,354,4.6,4.6,34,0.00,CLR,,0.00,WeatherDisplay:10.37,2013-04-25 17:33:00,
2013-04-25 13:38:00,57.4,29.3,30.14,WNW,301,8.1,8.1,34,0.00,CLR,,0.00,WeatherDisplay:10.37,2013-04-25 17:38:00,
2013-04-25 13:43:00,57.8,28.1,30.14,NW,305,6.9,6.9,32,0.00,CLR,,0.00,WeatherDisplay:10.37,2013-04-25 17:43:00,
2013-04-25 13:48:00,58.1,28.4,30.13,ESE,109,6.9,6.9,32,0.00,CLR,,0.00,WeatherDisplay:10.37,2013-04-25 17:48:00,
2013-04-25 13:53:00,58.6,31.7,30.13,NNW,328,9.2,9.2,36,0.00,CLR,,0.00,WeatherDisplay:10.37,2013-04-25 17:53:00,
2013-04-25 13:58:00,58.8,28.2,30.13,NW,315,11.5,11.5,31,0.00,CLR,,0.00,WeatherDisplay:10.37,2013-04-25 17:58:00,
2013-04-25 14:03:00,58.5,28.0,30.13,NNW,332,9.2,9.2,31,0.00,CLR,,0.00,WeatherDisplay:10.37,2013-04-25 18:03:00,
2013-04-25 14:08:00,58.2,27.7,30.13,NW,304,9.2,9.2,31,0.00,CLR,,0.00,WeatherDisplay:10.37,2013-04-25 18:08:00,
2013-04-25 14:14:00,58.3,27.8,30.13,NW,319,10.4,10.4,31,0.00,CLR,,0.00,WeatherDisplay:10.37,2013-04-25 18:14:00,
2013-04-25 14:19:00,58.5,30.2,30.13,NE,42,8.1,8.1,34,0.00,CLR,,0.00,WeatherDisplay:10.37,2013-04-25 18:19:00,
2013-04-25 14:24:00,58.4,30.1,30.13,NNW,335,6.9,6.9,34,0.00,CLR,,0.00,WeatherDisplay:10.37,2013-04-25 18:24:00,
2013-04-25 14:29:00,58.6,30.3,30.13,SSW,200,5.8,5.8,34,0.00,CLR,,0.00,WeatherDisplay:10.37,2013-04-25 18:29:00,
2013-04-25 14:34:00,58.9,27.5,30.13,NNW,328,5.8,5.8,30,0.00,CLR,,0.00,WeatherDisplay:10.37,2013-04-25 18:34:00,
2013-04-25 14:39:00,59.2,27.8,30.13,North,7,9.2,9.2,30,0.00,CLR,,0.00,WeatherDisplay:10.37,2013-04-25 18:39:00,
2013-04-25 14:44:00,59.0,27.6,30.12,NNE,28,6.9,6.9,30,0.00,CLR,,0.00,WeatherDisplay:10.37,2013-04-25 18:44:00,
2013-04-25 14:49:00,59.3,29.4,30.12,WNW,291,8.1,8.1,32,0.00,CLR,,0.00,WeatherDisplay:10.37,2013-04-25 18:49:00,
2013-04-25 14:54:00,59.6,28.9,30.12,NNE,14,6.9,6.9,31,0.00,CLR,,0.00,WeatherDisplay:10.37,2013-04-25 18:54:00,
2013-04-25 14:59:00,59.6,27.3,30.12,East,89,6.9,6.9,29,0.00,CLR,,0.00,WeatherDisplay:10.37,2013-04-25 18:59:00,
2013-04-25 15:04:00,59.6,28.9,30.12,NW,318,9.2,9.2,31,0.00,CLR,,0.00,WeatherDisplay:10.37,2013-04-25 19:04:00,
2013-04-25 15:09:00,59.9,30.0,30.12,WNW,302,8.1,8.1,32,0.00,CLR,,0.00,WeatherDisplay:10.37,2013-04-25 19:09:00,
2013-04-25 15:14:00,60.0,26.8,30.12,NNW,333,11.5,11.5,28,0.00,CLR,,0.00,WeatherDisplay:10.37,2013-04-25 19:14:00,
2013-04-25 15:19:00,59.7,28.2,30.12,WNW,295,9.2,9.2,30,0.00,CLR,,0.00,WeatherDisplay:10.37,2013-04-25 19:19:00,
2013-04-25 15:24:00,60.0,27.7,30.12,WNW,287,4.6,4.6,29,0.00,CLR,,0.00,WeatherDisplay:10.37,2013-04-25 19:24:00,
2013-04-25 15:29:00,60.4,27.1,30.12,WNW,296,10.4,10.4,28,0.00,CLR,,0.00,WeatherDisplay:10.37,2013-04-25 19:29:00,
2013-04-25 15:34:00,60.6,29.0,30.12,NW,326,2.3,2.3,30,0.00,CLR,,0.00,WeatherDisplay:10.37,2013-04-25 19:34:00,
2013-04-25 15:39:00,60.4,28.0,30.12,West,275,5.8,5.8,29,0.00,CLR,,0.00,WeatherDisplay:10.37,2013-04-25 19:39:00,
2013-04-25 15:44:00,60.1,26.9,30.12,North,10,1.2,3.1,28,0.00,CLR,,0.00,WeatherDisplay:10.37,2013-04-25 19:44:00,
2013-04-25 15:49:00,60.1,29.4,30.11,SW,217,6.9,6.9,31,0.00,CLR,,0.00,WeatherDisplay:10.37,2013-04-25 19:49:00,
2013-04-25 15:54:00,60.6,29.8,30.12,WNW,284,5.8,5.8,31,0.00,CLR,,0.00,WeatherDisplay:10.37,2013-04-25 19:54:00,
2013-04-25 15:59:00,61.0,29.3,30.12,SW,234,9.2,9.2,30,0.00,CLR,,0.00,WeatherDisplay:10.37,2013-04-25 19:59:00,
2013-04-25 16:04:00,60.7,26.5,30.12,NW,311,10.4,10.4,27,0.00,CLR,,0.00,WeatherDisplay:10.37,2013-04-25 20:04:00,
2013-04-25 16:09:00,60.9,26.7,30.12,North,11,6.9,6.9,27,0.00,CLR,,0.00,WeatherDisplay:10.37,2013-04-25 20:09:00,
2013-04-25 16:14:00,60.6,27.3,30.12,NNE,32,5.8,5.8,28,0.00,CLR,,0.00,WeatherDisplay:10.37,2013-04-25 20:14:00,
2013-04-25 16:19:00,60.4,27.1,30.12,NNE,17,5.8,5.8,28,0.00,CLR,,0.00,WeatherDisplay:10.37,2013-04-25 20:19:00,
2013-04-25 16:24:00,60.7,25.6,30.12,NW,308,5.8,5.8,26,0.00,CLR,,0.00,WeatherDisplay:10.37,2013-04-25 20:24:00,
2013-04-25 16:29:00,60.3,27.9,30.12,NE,49,8.1,8.1,29,0.00,CLR,,0.00,WeatherDisplay:10.37,2013-04-25 20:29:00,
2013-04-25 16:34:00,60.4,26.3,30.12,North,4,6.9,6.9,27,0.00,CLR,,0.00,WeatherDisplay:10.37,2013-04-25 20:34:00,
2013-04-25 16:39:00,60.0,27.7,30.12,NE,41,6.9,6.9,29,0.00,CLR,,0.00,WeatherDisplay:10.37,2013-04-25 20:39:00,
2013-04-25 16:44:00,59.9,28.4,30.12,North,1,0.0,1.7,30,0.00,CLR,,0.00,WeatherDisplay:10.37,2013-04-25 20:44:00,
2013-04-25 16:49:00,60.7,31.4,30.12,NW,311,5.8,5.8,33,0.00,CLR,,0.00,WeatherDisplay:10.37,2013-04-25 20:49:00,
2013-04-25 16:54:00,61.1,28.6,30.12,NW,316,4.6,4.6,29,0.00,CLR,,0.00,WeatherDisplay:10.37,2013-04-25 20:54:00,
2013-04-25 16:59:00,61.6,29.9,30.12,NE,34,6.9,6.9,30,0.00,CLR,,0.00,WeatherDisplay:10.37,2013-04-25 20:59:00,
2013-04-25 17:04:00,61.6,27.3,30.12,NE,42,4.6,4.6,27,0.00,CLR,,0.00,WeatherDisplay:10.37,2013-04-25 21:04:00,
2013-04-25 17:09:00,61.5,25.3,30.12,ESE,116,5.8,5.8,25,0.00,CLR,,0.00,WeatherDisplay:10.37,2013-04-25 21:09:00,
2013-04-25 17:14:00,61.6,27.3,30.12,NNW,330,3.5,3.5,27,0.00,CLR,,0.00,WeatherDisplay:10.37,2013-04-25 21:14:00,
2013-04-25 17:19:00,61.5,29.0,30.12,NW,312,5.8,5.8,29,0.00,CLR,,0.00,WeatherDisplay:10.37,2013-04-25 21:19:00,
2013-04-25 17:24:00,61.8,27.5,30.12,WNW,298,0.0,0.0,27,0.00,CLR,,0.00,WeatherDisplay:10.37,2013-04-25 21:24:00,
2013-04-25 17:29:00,61.3,26.1,30.12,WNW,298,0.0,0.0,26,0.00,CLR,,0.00,WeatherDisplay:10.37,2013-04-25 21:29:00,
2013-04-25 17:34:00,61.0,27.7,30.12,North,350,0.0,0.0,28,0.00,CLR,,0.00,WeatherDisplay:10.37,2013-04-25 21:34:00,
2013-04-25 17:39:00,61.1,26.9,30.12,North,350,0.0,0.0,27,0.00,CLR,,0.00,WeatherDisplay:10.37,2013-04-25 21:39:00,
2013-04-25 17:44:00,61.1,29.4,30.12,WSW,258,2.3,2.3,30,0.00,CLR,,0.00,WeatherDisplay:10.37,2013-04-25 21:44:00,
2013-04-25 17:49:00,61.3,28.8,30.12,NW,323,0.0,0.0,29,0.00,CLR,,0.00,WeatherDisplay:10.37,2013-04-25 21:49:00,
2013-04-25 17:54:00,61.1,26.9,30.12,NNE,24,4.6,4.6,27,0.00,CLR,,0.00,WeatherDisplay:10.37,2013-04-25 21:54:00,
2013-04-25 17:59:00,60.9,29.3,30.13,NW,322,0.0,0.0,30,0.00,CLR,,0.00,WeatherDisplay:10.37,2013-04-25 21:59:00,
2013-04-25 18:04:00,61.0,29.3,30.12,SW,219,2.5,2.5,30,0.00,CLR,,0.00,WeatherDisplay:10.37,2013-04-25 22:04:00,
2013-04-25 18:09:00,61.0,27.7,30.13,SW,229,0.0,0.0,28,0.00,CLR,,0.00,WeatherDisplay:10.37,2013-04-25 22:09:00,
2013-04-25 18:14:00,60.8,28.3,30.13,SW,229,0.0,0.0,29,0.00,CLR,,0.00,WeatherDisplay:10.37,2013-04-25 22:14:00,
2013-04-25 18:19:00,60.7,27.4,30.13,SW,229,0.0,0.0,28,0.00,CLR,,0.00,WeatherDisplay:10.37,2013-04-25 22:19:00,
2013-04-25 18:24:00,60.2,26.1,30.14,SW,229,0.0,0.0,27,0.00,CLR,,0.00,WeatherDisplay:10.37,2013-04-25 22:24:00,
2013-04-25 18:29:00,60.1,26.9,30.14,SW,229,0.0,0.0,28,0.00,CLR,,0.00,WeatherDisplay:10.37,2013-04-25 22:29:00,
2013-04-25 18:34:00,60.0,25.9,30.14,SW,229,0.0,0.0,27,0.00,CLR,,0.00,WeatherDisplay:10.37,2013-04-25 22:34:00,
2013-04-25 18:39:00,59.9,25.8,30.14,SW,229,0.0,0.0,27,0.00,CLR,,0.00,WeatherDisplay:10.37,2013-04-25 22:39:00,
2013-04-25 18:44:00,59.7,27.4,30.14,SW,229,0.0,0.0,29,0.00,CLR,,0.00,WeatherDisplay:10.37,2013-04-25 22:44:00,
2013-04-25 18:49:00,59.6,26.5,30.14,East,99,0.0,0.0,28,0.00,CLR,,0.00,WeatherDisplay:10.37,2013-04-25 22:49:00,
2013-04-25 18:54:00,59.2,27.0,30.14,East,99,0.0,0.0,29,0.00,CLR,,0.00,WeatherDisplay:10.37,2013-04-25 22:54:00,
2013-04-25 18:59:00,59.1,26.9,30.14,East,99,0.0,0.0,29,0.00,CLR,,0.00,WeatherDisplay:10.37,2013-04-25 22:59:00,
2013-04-25 19:04:00,59.0,25.9,30.14,East,99,0.0,0.0,28,0.00,CLR,,0.00,WeatherDisplay:10.37,2013-04-25 23:04:00,
2013-04-25 19:09:00,58.8,25.8,30.14,SW,230,0.0,0.0,28,0.00,CLR,,0.00,WeatherDisplay:10.37,2013-04-25 23:09:00,
2013-04-25 19:14:00,58.7,25.7,30.15,SW,230,0.0,0.0,28,0.00,CLR,,0.00,WeatherDisplay:10.37,2013-04-25 23:14:00,
2013-04-25 19:19:00,58.7,25.7,30.15,SW,230,0.0,0.0,28,0.00,CLR,,0.00,WeatherDisplay:10.37,2013-04-25 23:19:00,
2013-04-25 19:24:00,58.3,26.2,30.15,SW,230,0.0,0.0,29,0.00,CLR,,0.00,WeatherDisplay:10.37,2013-04-25 23:24:00,
2013-04-25 19:29:00,58.4,26.3,30.16,SW,230,0.0,0.0,29,0.00,CLR,,0.00,WeatherDisplay:10.37,2013-04-25 23:29:00,
2013-04-25 19:34:00,57.5,26.3,30.16,SW,230,0.0,0.0,30,0.00,CLR,,0.00,WeatherDisplay:10.37,2013-04-25 23:34:00,
2013-04-25 19:39:00,57.6,25.6,30.16,SW,230,0.0,0.0,29,0.00,CLR,,0.00,WeatherDisplay:10.37,2013-04-25 23:39:00,
2013-04-25 19:44:00,57.1,26.8,30.16,SW,230,0.0,0.0,31,0.00,CLR,,0.00,WeatherDisplay:10.37,2013-04-25 23:44:00,
2013-04-25 19:49:00,56.8,27.3,30.16,SW,230,0.0,0.0,32,0.00,CLR,,0.00,WeatherDisplay:10.37,2013-04-25 23:49:00,
2013-04-25 19:54:00,56.6,27.8,30.16,SW,230,0.0,0.0,33,0.00,CLR,,0.00,WeatherDisplay:10.37,2013-04-25 23:54:00,
2013-04-25 19:59:00,56.0,27.3,30.17,SW,230,0.0,0.0,33,0.00,CLR,,0.00,WeatherDisplay:10.37,2013-04-25 23:59:00,
2013-04-25 20:04:00,55.6,26.2,30.17,SW,230,0.0,0.0,32,0.00,CLR,,0.00,WeatherDisplay:10.37,2013-04-26 00:04:00,
2013-04-25 20:09:00,55.3,25.9,30.17,SW,230,0.0,0.0,32,0.00,CLR,,0.00,WeatherDisplay:10.37,2013-04-26 00:09:00,
2013-04-25 20:14:00,55.1,26.5,30.17,SW,230,0.0,0.0,33,0.00,CLR,,0.00,WeatherDisplay:10.37,2013-04-26 00:14:00,
2013-04-25 20:19:00,54.6,27.5,30.17,SW,230,0.0,0.0,35,0.00,CLR,,0.00,WeatherDisplay:10.37,2013-04-26 00:19:00,
2013-04-25 20:24:00,54.2,27.8,30.17,SW,230,0.0,0.0,36,0.00,CLR,,0.00,WeatherDisplay:10.37,2013-04-26 00:24:00,
2013-04-25 20:29:00,53.8,27.5,30.18,SW,230,0.0,0.0,36,0.00,CLR,,0.00,WeatherDisplay:10.37,2013-04-26 00:29:00,
2013-04-25 20:34:00,53.4,26.4,30.18,SW,230,0.0,0.0,35,0.00,CLR,,0.00,WeatherDisplay:10.37,2013-04-26 00:34:00,
2013-04-25 20:39:00,53.1,26.2,30.18,SW,230,0.0,0.0,35,0.00,CLR,,0.00,WeatherDisplay:10.37,2013-04-26 00:39:00,
2013-04-25 20:44:00,53.0,26.1,30.19,SW,230,0.0,0.0,35,0.00,CLR,,0.00,WeatherDisplay:10.37,2013-04-26 00:44:00,
2013-04-25 20:49:00,53.0,26.8,30.19,SW,230,0.0,0.0,36,0.00,CLR,,0.00,WeatherDisplay:10.37,2013-04-26 00:49:00,
2013-04-25 20:54:00,52.8,26.6,30.19,SW,230,0.0,0.0,36,0.00,CLR,,0.00,WeatherDisplay:10.37,2013-04-26 00:54:00,
2013-04-25 20:59:00,52.6,26.4,30.20,NE,45,0.0,0.1,36,0.00,CLR,,0.00,WeatherDisplay:10.37,2013-04-26 00:59:00,
2013-04-25 21:04:00,52.2,26.7,30.20,NNE,32,0.0,0.0,37,0.00,CLR,,0.00,WeatherDisplay:10.37,2013-04-26 01:04:00,
2013-04-25 21:09:00,51.9,27.1,30.20,NNE,32,0.0,0.0,38,0.00,CLR,,0.00,WeatherDisplay:10.37,2013-04-26 01:09:00,
2013-04-25 21:14:00,51.7,26.9,30.20,NNE,32,0.0,0.0,38,0.00,CLR,,0.00,WeatherDisplay:10.37,2013-04-26 01:14:00,
2013-04-25 21:19:00,51.5,26.7,30.21,NNE,32,0.0,0.0,38,0.00,CLR,,0.00,WeatherDisplay:10.37,2013-04-26 01:19:00,
2013-04-25 21:24:00,51.2,26.5,30.21,NNE,32,0.0,0.0,38,0.00,CLR,,0.00,WeatherDisplay:10.37,2013-04-26 01:24:00,
2013-04-25 21:29:00,51.1,27.0,30.21,NNE,32,0.0,0.0,39,0.00,CLR,,0.00,WeatherDisplay:10.37,2013-04-26 01:29:00,
2013-04-25 21:34:00,50.9,27.4,30.22,NNE,32,0.0,0.0,40,0.00,CLR,,0.00,WeatherDisplay:10.37,2013-04-26 01:34:00,
2013-04-25 21:39:00,51.1,27.0,30.22,NNE,32,0.0,0.0,39,0.00,CLR,,0.00,WeatherDisplay:10.37,2013-04-26 01:39:00,
2013-04-25 21:44:00,51.3,27.2,30.22,NNE,32,0.0,0.0,39,0.00,CLR,,0.00,WeatherDisplay:10.37,2013-04-26 01:44:00,
2013-04-25 21:49:00,51.1,27.6,30.22,NNE,32,0.0,0.0,40,0.00,CLR,,0.00,WeatherDisplay:10.37,2013-04-26 01:49:00,
2013-04-25 21:54:00,50.6,27.8,30.22,NNE,32,1.1,0.0,41,0.00,CLR,,0.00,WeatherDisplay:10.37,2013-04-26 01:54:00,
2013-04-25 21:59:00,50.2,28.0,30.23,NNW,332,0.0,0.0,42,0.00,CLR,,0.00,WeatherDisplay:10.37,2013-04-26 01:59:00,
2013-04-25 22:04:00,49.7,28.1,30.23,NNW,332,0.0,0.0,43,0.00,CLR,,0.00,WeatherDisplay:10.37,2013-04-26 02:04:00,
2013-04-25 22:09:00,49.5,28.5,30.23,NNW,332,0.0,0.0,44,0.00,CLR,,0.00,WeatherDisplay:10.37,2013-04-26 02:09:00,
2013-04-25 22:14:00,49.2,28.2,30.23,NNW,332,0.0,0.0,44,0.00,CLR,,0.00,WeatherDisplay:10.37,2013-04-26 02:14:00,
2013-04-25 22:19:00,49.1,28.1,30.23,NNW,332,0.0,0.0,44,0.00,CLR,,0.00,WeatherDisplay:10.37,2013-04-26 02:19:00,
2013-04-25 22:24:00,48.9,28.0,30.23,NNW,332,0.0,0.0,44,0.00,CLR,,0.00,WeatherDisplay:10.37,2013-04-26 02:24:00,
2013-04-25 22:29:00,48.8,27.9,30.23,NNW,332,0.0,0.0,44,0.00,CLR,,0.00,WeatherDisplay:10.37,2013-04-26 02:29:00,
2013-04-25 22:34:00,48.7,27.8,30.23,NNW,332,0.0,0.0,44,0.00,CLR,,0.00,WeatherDisplay:10.37,2013-04-26 02:34:00,
2013-04-25 22:39:00,48.7,27.8,30.24,NNW,332,0.0,0.0,44,0.00,CLR,,0.00,WeatherDisplay:10.37,2013-04-26 02:39:00,
2013-04-25 22:44:00,48.7,28.3,30.24,NNW,332,0.0,0.0,45,0.00,CLR,,0.00,WeatherDisplay:10.37,2013-04-26 02:44:00,
2013-04-25 22:49:00,48.5,27.6,30.24,West,263,0.0,0.0,44,0.00,CLR,,0.00,WeatherDisplay:10.37,2013-04-26 02:49:00,
2013-04-25 22:54:00,48.3,28.0,30.24,West,263,0.0,0.0,45,0.00,CLR,,0.00,WeatherDisplay:10.37,2013-04-26 02:54:00,
2013-04-25 22:59:00,48.1,27.8,30.24,West,263,0.0,0.0,45,0.00,CLR,,0.00,WeatherDisplay:10.37,2013-04-26 02:59:00,
2013-04-25 23:04:00,48.0,28.2,30.24,West,263,0.0,0.0,46,0.00,CLR,,0.00,WeatherDisplay:10.37,2013-04-26 03:04:00,
2013-04-25 23:09:00,47.9,27.6,30.25,West,263,0.0,0.0,45,0.00,CLR,,0.00,WeatherDisplay:10.37,2013-04-26 03:09:00,
2013-04-25 23:14:00,47.7,27.9,30.25,West,263,0.0,0.0,46,0.00,CLR,,0.00,WeatherDisplay:10.37,2013-04-26 03:14:00,
2013-04-25 23:19:00,47.6,27.3,30.25,West,263,0.0,0.0,45,0.00,CLR,,0.00,WeatherDisplay:10.37,2013-04-26 03:19:00,
2013-04-25 23:24:00,47.8,27.5,30.25,West,263,0.0,0.0,45,0.00,CLR,,0.00,WeatherDisplay:10.37,2013-04-26 03:24:00,
2013-04-25 23:29:00,47.8,27.5,30.25,West,263,0.0,0.0,45,0.00,CLR,,0.00,WeatherDisplay:10.37,2013-04-26 03:29:00,
2013-04-25 23:34:00,48.0,27.7,30.25,West,263,0.0,0.0,45,0.00,CLR,,0.00,WeatherDisplay:10.37,2013-04-26 03:34:00,
2013-04-25 23:39:00,47.9,27.6,30.25,West,263,0.0,0.0,45,0.00,CLR,,0.00,WeatherDisplay:10.37,2013-04-26 03:39:00,
2013-04-25 23:44:00,48.0,28.2,30.25,West,263,0.0,0.0,46,0.00,CLR,,0.00,WeatherDisplay:10.37,2013-04-26 03:44:00,
2013-04-25 23:49:00,47.9,28.1,30.25,West,263,0.0,0.0,46,0.00,CLR,,0.00,WeatherDisplay:10.37,2013-04-26 03:49:00,
2013-04-25 23:54:00,47.7,27.9,30.25,West,263,0.0,0.0,46,0.00,CLR,,0.00,WeatherDisplay:10.37,2013-04-26 03:54:00,
2013-04-25 23:59:00,47.6,28.4,30.25,West,263,0.0,0.0,47,0.00,CLR,,0.00,WeatherDisplay:10.37,2013-04-26 03:59:00,